sensor_id;sensor_type;location;lat;lon;timestamp;pressure;altitude;pressure_sealevel;temperature;humidity
60015;BME280;45867;52.480;6.056;2022-10-17T00:00:47;101736.28;;;12.84;100.00
60015;BME280;45867;52.480;6.056;2022-10-17T00:03:13;101728.81;;;12.81;100.00
60015;BME280;45867;52.480;6.056;2022-10-17T00:05:40;101726.69;;;12.78;100.00
60015;BME280;45867;52.480;6.056;2022-10-17T00:08:07;101725.06;;;12.72;100.00
60015;BME280;45867;52.480;6.056;2022-10-17T00:10:32;101731.72;;;12.74;100.00
60015;BME280;45867;52.480;6.056;2022-10-17T00:12:58;101728.25;;;12.69;100.00
60015;BME280;45867;52.480;6.056;2022-10-17T00:15:23;101726.06;;;12.60;100.00
60015;BME280;45867;52.480;6.056;2022-10-17T00:17:49;101728.69;;;12.55;100.00
60015;BME280;45867;52.480;6.056;2022-10-17T00:20:22;101729.69;;;12.49;100.00
60015;BME280;45867;52.480;6.056;2022-10-17T00:22:48;101710.56;;;12.47;100.00
60015;BME280;45867;52.480;6.056;2022-10-17T00:25:14;101711.91;;;12.50;100.00
60015;BME280;45867;52.480;6.056;2022-10-17T00:27:40;101706.59;;;12.50;100.00
60015;BME280;45867;52.480;6.056;2022-10-17T00:30:10;101701.00;;;12.51;100.00
60015;BME280;45867;52.480;6.056;2022-10-17T00:32:36;101685.81;;;12.41;100.00
60015;BME280;45867;52.480;6.056;2022-10-17T00:35:01;101692.19;;;12.46;100.00
60015;BME280;45867;52.480;6.056;2022-10-17T00:37:29;101692.72;;;12.42;100.00
60015;BME280;45867;52.480;6.056;2022-10-17T00:39:55;101699.59;;;12.33;100.00
60015;BME280;45867;52.480;6.056;2022-10-17T00:42:20;101700.09;;;12.35;100.00
60015;BME280;45867;52.480;6.056;2022-10-17T00:47:19;101704.91;;;12.33;100.00
60015;BME280;45867;52.480;6.056;2022-10-17T00:49:46;101702.25;;;12.33;100.00
60015;BME280;45867;52.480;6.056;2022-10-17T00:52:17;101698.75;;;12.33;100.00
60015;BME280;45867;52.480;6.056;2022-10-17T00:54:47;101695.84;;;12.34;100.00
60015;BME280;45867;52.480;6.056;2022-10-17T00:57:14;101695.84;;;12.34;100.00
60015;BME280;45867;52.480;6.056;2022-10-17T00:59:42;101701.19;;;12.34;100.00
60015;BME280;45867;52.480;6.056;2022-10-17T01:02:12;101700.59;;;12.27;100.00
60015;BME280;45867;52.480;6.056;2022-10-17T01:04:44;101706.22;;;12.31;100.00
60015;BME280;45867;52.480;6.056;2022-10-17T01:07:11;101688.88;;;12.23;100.00
60015;BME280;45867;52.480;6.056;2022-10-17T01:09:38;101694.47;;;12.27;100.00
60015;BME280;45867;52.480;6.056;2022-10-17T01:12:24;101693.91;;;12.25;100.00
60015;BME280;45867;52.480;6.056;2022-10-17T01:15:11;101690.78;;;12.33;100.00
60015;BME280;45867;52.480;6.056;2022-10-17T01:26:15;101672.97;;;12.28;100.00
60015;BME280;45867;52.480;6.056;2022-10-17T01:34:44;101686.00;;;12.30;100.00
60015;BME280;45867;52.480;6.056;2022-10-17T01:39:57;101691.06;;;12.31;100.00
60015;BME280;45867;52.480;6.056;2022-10-17T01:42:34;101685.22;;;12.34;100.00
60015;BME280;45867;52.480;6.056;2022-10-17T01:45:12;101687.66;;;12.36;100.00
60015;BME280;45867;52.480;6.056;2022-10-17T01:47:40;101680.97;;;12.33;100.00
60015;BME280;45867;52.480;6.056;2022-10-17T01:50:10;101661.56;;;12.33;100.00
60015;BME280;45867;52.480;6.056;2022-10-17T01:52:43;101660.56;;;12.44;100.00
60015;BME280;45867;52.480;6.056;2022-10-17T01:55:20;101654.44;;;12.43;100.00
60015;BME280;45867;52.480;6.056;2022-10-17T01:57:50;101649.94;;;12.44;100.00
60015;BME280;45867;52.480;6.056;2022-10-17T02:00:20;101640.63;;;12.47;100.00
60015;BME280;45867;52.480;6.056;2022-10-17T02:02:47;101635.81;;;12.43;100.00
60015;BME280;45867;52.480;6.056;2022-10-17T02:05:17;101642.78;;;12.50;100.00
60015;BME280;45867;52.480;6.056;2022-10-17T02:07:44;101636.66;;;12.49;100.00
60015;BME280;45867;52.480;6.056;2022-10-17T02:10:15;101651.28;;;12.52;100.00
60015;BME280;45867;52.480;6.056;2022-10-17T02:12:55;101638.50;;;12.43;100.00
60015;BME280;45867;52.480;6.056;2022-10-17T02:21:01;101647.31;;;12.54;100.00
60015;BME280;45867;52.480;6.056;2022-10-17T02:23:52;101639.84;;;12.51;100.00
60015;BME280;45867;52.480;6.056;2022-10-17T02:28:58;101625.78;;;12.51;100.00
60015;BME280;45867;52.480;6.056;2022-10-17T02:31:37;101617.03;;;12.55;100.00
60015;BME280;45867;52.480;6.056;2022-10-17T02:34:13;101609.31;;;12.54;100.00
60015;BME280;45867;52.480;6.056;2022-10-17T02:36:47;101598.94;;;12.52;100.00
60015;BME280;45867;52.480;6.056;2022-10-17T02:39:14;101598.41;;;12.55;100.00
60015;BME280;45867;52.480;6.056;2022-10-17T02:41:41;101596.28;;;12.52;100.00
60015;BME280;45867;52.480;6.056;2022-10-17T02:44:09;101596.53;;;12.51;100.00
60015;BME280;45867;52.480;6.056;2022-10-17T02:46:36;101593.63;;;12.57;100.00
60015;BME280;45867;52.480;6.056;2022-10-17T02:49:07;101591.47;;;12.54;100.00
60015;BME280;45867;52.480;6.056;2022-10-17T02:51:44;101586.94;;;12.44;100.00
60015;BME280;45867;52.480;6.056;2022-10-17T02:54:20;101587.75;;;12.50;100.00
60015;BME280;45867;52.480;6.056;2022-10-17T02:56:52;101597.28;;;12.46;100.00
60015;BME280;45867;52.480;6.056;2022-10-17T02:59:20;101598.63;;;12.43;100.00
60015;BME280;45867;52.480;6.056;2022-10-17T03:01:49;101596.78;;;12.44;100.00
60015;BME280;45867;52.480;6.056;2022-10-17T03:04:15;101594.63;;;12.41;100.00
60015;BME280;45867;52.480;6.056;2022-10-17T03:06:43;101595.94;;;12.38;100.00
60015;BME280;45867;52.480;6.056;2022-10-17T03:09:10;101603.41;;;12.41;100.00
60015;BME280;45867;52.480;6.056;2022-10-17T03:11:35;101595.09;;;12.33;100.00
60015;BME280;45867;52.480;6.056;2022-10-17T03:14:01;101593.00;;;12.35;100.00
60015;BME280;45867;52.480;6.056;2022-10-17T03:16:26;101587.69;;;12.35;100.00
60015;BME280;45867;52.480;6.056;2022-10-17T03:18:52;101576.78;;;12.31;100.00
60015;BME280;45867;52.480;6.056;2022-10-17T03:21:17;101578.66;;;12.36;100.00
60015;BME280;45867;52.480;6.056;2022-10-17T03:23:43;101583.50;;;12.44;100.00
60015;BME280;45867;52.480;6.056;2022-10-17T03:26:08;101583.75;;;12.42;100.00
60015;BME280;45867;52.480;6.056;2022-10-17T03:28:34;101566.19;;;12.41;100.00
60015;BME280;45867;52.480;6.056;2022-10-17T03:31:08;101586.94;;;12.44;100.00
60015;BME280;45867;52.480;6.056;2022-10-17T03:33:34;101588.28;;;12.47;100.00
60015;BME280;45867;52.480;6.056;2022-10-17T03:36:04;101595.44;;;12.41;100.00
60015;BME280;45867;52.480;6.056;2022-10-17T03:38:30;101596.78;;;12.44;100.00
60015;BME280;45867;52.480;6.056;2022-10-17T03:40:55;101606.59;;;12.43;100.00
60015;BME280;45867;52.480;6.056;2022-10-17T03:43:21;101608.22;;;12.44;100.00
60015;BME280;45867;52.480;6.056;2022-10-17T03:45:46;101612.97;;;12.42;100.00
60015;BME280;45867;52.480;6.056;2022-10-17T03:48:11;101608.22;;;12.50;100.00
60015;BME280;45867;52.480;6.056;2022-10-17T03:50:37;101601.56;;;12.47;100.00
60015;BME280;45867;52.480;6.056;2022-10-17T03:53:02;101605.56;;;12.50;100.00
60015;BME280;45867;52.480;6.056;2022-10-17T03:55:27;101615.16;;;12.56;100.00
60015;BME280;45867;52.480;6.056;2022-10-17T03:57:53;101616.50;;;12.58;100.00
60015;BME280;45867;52.480;6.056;2022-10-17T04:00:18;101612.75;;;12.54;100.00
60015;BME280;45867;52.480;6.056;2022-10-17T04:02:44;101598.94;;;12.57;100.00
60015;BME280;45867;52.480;6.056;2022-10-17T04:05:09;101598.94;;;12.57;100.00
60015;BME280;45867;52.480;6.056;2022-10-17T04:07:34;101592.31;;;12.60;100.00
60015;BME280;45867;52.480;6.056;2022-10-17T04:10:02;101610.72;;;12.72;100.00
60015;BME280;45867;52.480;6.056;2022-10-17T04:12:27;101606.72;;;12.69;100.00
60015;BME280;45867;52.480;6.056;2022-10-17T04:14:52;101605.63;;;12.70;100.00
60015;BME280;45867;52.480;6.056;2022-10-17T04:17:19;101601.13;;;12.71;100.00
60015;BME280;45867;52.480;6.056;2022-10-17T04:19:44;101608.31;;;12.75;100.00
60015;BME280;45867;52.480;6.056;2022-10-17T04:22:09;101617.91;;;12.81;100.00
60015;BME280;45867;52.480;6.056;2022-10-17T04:24:35;101609.09;;;12.76;100.00
60015;BME280;45867;52.480;6.056;2022-10-17T04:27:00;101611.78;;;12.81;100.00
60015;BME280;45867;52.480;6.056;2022-10-17T04:29:26;101604.59;;;12.81;100.00
60015;BME280;45867;52.480;6.056;2022-10-17T04:31:51;101588.38;;;12.73;100.00
60015;BME280;45867;52.480;6.056;2022-10-17T04:34:17;101600.09;;;12.87;100.00
60015;BME280;45867;52.480;6.056;2022-10-17T04:36:43;101593.75;;;12.93;100.00
60015;BME280;45867;52.480;6.056;2022-10-17T04:39:08;101603.88;;;12.96;100.00
60015;BME280;45867;52.480;6.056;2022-10-17T04:41:33;101608.91;;;13.03;100.00
60015;BME280;45867;52.480;6.056;2022-10-17T04:43:59;101595.09;;;13.11;100.00
60015;BME280;45867;52.480;6.056;2022-10-17T04:46:24;101577.81;;;13.14;100.00
60015;BME280;45867;52.480;6.056;2022-10-17T04:48:49;101583.69;;;13.21;100.00
60015;BME280;45867;52.480;6.056;2022-10-17T04:51:17;101599.16;;;13.29;100.00
60015;BME280;45867;52.480;6.056;2022-10-17T04:53:42;101609.28;;;13.32;100.00
60015;BME280;45867;52.480;6.056;2022-10-17T04:56:14;101606.06;;;13.35;100.00
60015;BME280;45867;52.480;6.056;2022-10-17T04:58:40;101598.34;;;13.39;100.00
60015;BME280;45867;52.480;6.056;2022-10-17T05:01:08;101599.69;;;13.41;100.00
60015;BME280;45867;52.480;6.056;2022-10-17T05:03:34;101584.78;;;13.30;100.00
60015;BME280;45867;52.480;6.056;2022-10-17T05:06:05;101584.00;;;13.35;100.00
60015;BME280;45867;52.480;6.056;2022-10-17T05:08:31;101600.22;;;13.43;100.00
60015;BME280;45867;52.480;6.056;2022-10-17T05:10:56;101612.19;;;13.41;100.00
60015;BME280;45867;52.480;6.056;2022-10-17T05:13:22;101616.22;;;13.53;100.00
60015;BME280;45867;52.480;6.056;2022-10-17T05:15:47;101622.03;;;13.55;100.00
60015;BME280;45867;52.480;6.056;2022-10-17T05:18:12;101611.41;;;13.50;100.00
60015;BME280;45867;52.480;6.056;2022-10-17T05:20:46;101623.38;;;13.63;100.00
60015;BME280;45867;52.480;6.056;2022-10-17T05:23:11;101619.38;;;13.61;100.00
60015;BME280;45867;52.480;6.056;2022-10-17T05:25:37;101619.94;;;13.68;100.00
60015;BME280;45867;52.480;6.056;2022-10-17T05:28:05;101625.50;;;13.66;100.00
60015;BME280;45867;52.480;6.056;2022-10-17T05:30:30;101634.31;;;13.62;100.00
60015;BME280;45867;52.480;6.056;2022-10-17T05:32:56;101638.28;;;13.69;100.00
60015;BME280;45867;52.480;6.056;2022-10-17T05:35:21;101647.09;;;13.75;100.00
60015;BME280;45867;52.480;6.056;2022-10-17T05:37:50;101630.59;;;13.78;100.00
60015;BME280;45867;52.480;6.056;2022-10-17T05:40:15;101629.50;;;13.79;100.00
60015;BME280;45867;52.480;6.056;2022-10-17T05:42:45;101636.16;;;13.71;100.00
60015;BME280;45867;52.480;6.056;2022-10-17T05:45:11;101626.59;;;13.70;100.00
60015;BME280;45867;52.480;6.056;2022-10-17T05:47:37;101653.47;;;13.74;100.00
60015;BME280;45867;52.480;6.056;2022-10-17T05:50:05;101640.94;;;13.69;100.00
60015;BME280;45867;52.480;6.056;2022-10-17T05:52:33;101639.66;;;13.67;100.00
60015;BME280;45867;52.480;6.056;2022-10-17T05:54:58;101640.94;;;13.74;100.00
60015;BME280;45867;52.480;6.056;2022-10-17T05:57:24;101640.16;;;13.74;100.00
60015;BME280;45867;52.480;6.056;2022-10-17T05:59:50;101631.13;;;13.70;100.00
60015;BME280;45867;52.480;6.056;2022-10-17T06:02:16;101632.72;;;13.71;100.00
60015;BME280;45867;52.480;6.056;2022-10-17T06:04:41;101649.78;;;13.75;100.00
60015;BME280;45867;52.480;6.056;2022-10-17T06:07:11;101650.81;;;13.79;100.00
60015;BME280;45867;52.480;6.056;2022-10-17T06:09:36;101643.63;;;13.74;100.00
60015;BME280;45867;52.480;6.056;2022-10-17T06:12:02;101651.34;;;13.81;100.00
60015;BME280;45867;52.480;6.056;2022-10-17T06:14:28;101649.50;;;13.87;100.00
60015;BME280;45867;52.480;6.056;2022-10-17T06:16:53;101649.22;;;13.83;100.00
60015;BME280;45867;52.480;6.056;2022-10-17T06:19:18;101659.34;;;13.91;100.00
60015;BME280;45867;52.480;6.056;2022-10-17T06:21:44;101639.63;;;13.87;100.00
60015;BME280;45867;52.480;6.056;2022-10-17T06:24:09;101657.72;;;13.95;100.00
60015;BME280;45867;52.480;6.056;2022-10-17T06:26:35;101636.16;;;13.87;100.00
60015;BME280;45867;52.480;6.056;2022-10-17T06:29:03;101647.31;;;13.94;100.00
60015;BME280;45867;52.480;6.056;2022-10-17T06:31:29;101638.28;;;13.85;100.00
60015;BME280;45867;52.480;6.056;2022-10-17T06:33:54;101647.63;;;13.92;100.00
60015;BME280;45867;52.480;6.056;2022-10-17T06:36:20;101645.19;;;13.91;100.00
60015;BME280;45867;52.480;6.056;2022-10-17T06:38:48;101654.03;;;13.91;100.00
60015;BME280;45867;52.480;6.056;2022-10-17T06:41:14;101666.25;;;13.97;100.00
60015;BME280;45867;52.480;6.056;2022-10-17T06:43:42;101665.72;;;14.01;100.00
60015;BME280;45867;52.480;6.056;2022-10-17T06:46:11;101664.94;;;14.00;100.00
60015;BME280;45867;52.480;6.056;2022-10-17T06:48:36;101670.78;;;14.07;100.00
60015;BME280;45867;52.480;6.056;2022-10-17T06:51:03;101676.38;;;14.16;100.00
60015;BME280;45867;52.480;6.056;2022-10-17T06:53:33;101686.22;;;14.20;100.00
60015;BME280;45867;52.480;6.056;2022-10-17T06:55:59;101680.63;;;14.22;100.00
60015;BME280;45867;52.480;6.056;2022-10-17T06:58:28;101675.53;;;14.31;100.00
60015;BME280;45867;52.480;6.056;2022-10-17T07:01:02;101672.88;;;14.31;100.00
60015;BME280;45867;52.480;6.056;2022-10-17T07:03:28;101681.41;;;14.38;100.00
60015;BME280;45867;52.480;6.056;2022-10-17T07:05:57;101672.06;;;14.35;100.00
60015;BME280;45867;52.480;6.056;2022-10-17T07:08:23;101683.22;;;14.48;100.00
60015;BME280;45867;52.480;6.056;2022-10-17T07:10:49;101694.72;;;14.53;100.00
60015;BME280;45867;52.480;6.056;2022-10-17T07:13:16;101698.69;;;14.56;100.00
60015;BME280;45867;52.480;6.056;2022-10-17T07:15:42;101717.34;;;14.66;100.00
60015;BME280;45867;52.480;6.056;2022-10-17T07:18:07;101707.72;;;14.75;100.00
60015;BME280;45867;52.480;6.056;2022-10-17T07:20:54;101711.13;;;14.86;100.00
60015;BME280;45867;52.480;6.056;2022-10-17T07:23:19;101705.78;;;14.91;100.00
60015;BME280;45867;52.480;6.056;2022-10-17T07:25:45;101696.47;;;14.83;100.00
60015;BME280;45867;52.480;6.056;2022-10-17T07:28:10;101710.88;;;14.93;100.00
60015;BME280;45867;52.480;6.056;2022-10-17T07:30:36;101727.38;;;14.95;100.00
60015;BME280;45867;52.480;6.056;2022-10-17T07:33:04;101723.38;;;14.97;100.00
60015;BME280;45867;52.480;6.056;2022-10-17T07:35:29;101722.28;;;15.03;100.00
60015;BME280;45867;52.480;6.056;2022-10-17T07:37:54;101736.44;;;15.04;100.00
60015;BME280;45867;52.480;6.056;2022-10-17T07:40:20;101734.00;;;15.07;100.00
60015;BME280;45867;52.480;6.056;2022-10-17T07:42:45;101739.59;;;15.11;100.00
60015;BME280;45867;52.480;6.056;2022-10-17T07:45:11;101751.56;;;15.19;100.00
60015;BME280;45867;52.480;6.056;2022-10-17T07:47:36;101744.34;;;15.19;100.00
60015;BME280;45867;52.480;6.056;2022-10-17T07:50:03;101758.75;;;15.28;100.00
60015;BME280;45867;52.480;6.056;2022-10-17T07:52:29;101765.13;;;15.27;100.00
60015;BME280;45867;52.480;6.056;2022-10-17T07:54:54;101732.88;;;15.24;100.00
60015;BME280;45867;52.480;6.056;2022-10-17T07:57:20;101731.50;;;15.31;100.00
60015;BME280;45867;52.480;6.056;2022-10-17T07:59:46;101736.53;;;15.33;100.00
60015;BME280;45867;52.480;6.056;2022-10-17T08:02:24;101720.28;;;15.29;100.00
60015;BME280;45867;52.480;6.056;2022-10-17T08:04:50;101719.50;;;15.24;100.00
60015;BME280;45867;52.480;6.056;2022-10-17T08:07:17;101708.03;;;15.23;100.00
60015;BME280;45867;52.480;6.056;2022-10-17T08:09:44;101719.22;;;15.30;100.00
60015;BME280;45867;52.480;6.056;2022-10-17T08:12:10;101709.34;;;15.31;100.00
60015;BME280;45867;52.480;6.056;2022-10-17T08:14:35;101729.63;;;15.32;100.00
60015;BME280;45867;52.480;6.056;2022-10-17T08:17:01;101766.19;;;15.37;100.00
60015;BME280;45867;52.480;6.056;2022-10-17T08:19:26;101776.28;;;15.45;100.00
60015;BME280;45867;52.480;6.056;2022-10-17T08:21:52;101761.88;;;15.41;100.00
60015;BME280;45867;52.480;6.056;2022-10-17T08:24:19;101770.63;;;15.51;100.00
60015;BME280;45867;52.480;6.056;2022-10-17T08:26:44;101784.53;;;15.53;100.00
60015;BME280;45867;52.480;6.056;2022-10-17T08:29:14;101795.94;;;15.64;100.00
60015;BME280;45867;52.480;6.056;2022-10-17T08:31:40;101822.69;;;15.69;100.00
60015;BME280;45867;52.480;6.056;2022-10-17T08:34:05;101843.75;;;15.71;100.00
60015;BME280;45867;52.480;6.056;2022-10-17T08:36:31;101848.84;;;15.72;100.00
60015;BME280;45867;52.480;6.056;2022-10-17T08:38:56;101859.50;;;15.78;100.00
60015;BME280;45867;52.480;6.056;2022-10-17T08:46:46;101889.56;;;15.98;100.00
60015;BME280;45867;52.480;6.056;2022-10-17T08:49:18;101891.44;;;16.03;100.00
60015;BME280;45867;52.480;6.056;2022-10-17T08:51:51;101885.84;;;16.00;100.00
60015;BME280;45867;52.480;6.056;2022-10-17T08:54:23;101895.44;;;16.06;100.00
60015;BME280;45867;52.480;6.056;2022-10-17T08:56:52;101888.19;;;16.06;100.00
60015;BME280;45867;52.480;6.056;2022-10-17T08:59:25;101910.28;;;16.27;100.00
60015;BME280;45867;52.480;6.056;2022-10-17T09:02:02;101916.66;;;16.31;100.00
60015;BME280;45867;52.480;6.056;2022-10-17T09:07:26;101918.81;;;16.29;100.00
60015;BME280;45867;52.480;6.056;2022-10-17T09:10:10;101915.16;;;16.15;100.00
60015;BME280;45867;52.480;6.056;2022-10-17T09:13:04;101926.91;;;16.19;100.00
60015;BME280;45867;52.480;6.056;2022-10-17T09:18:16;101913.88;;;16.07;100.00
60015;BME280;45867;52.480;6.056;2022-10-17T09:20:53;101920.31;;;16.01;100.00
60015;BME280;45867;52.480;6.056;2022-10-17T09:23:25;101914.69;;;16.03;100.00
60015;BME280;45867;52.480;6.056;2022-10-17T09:25:57;101927.56;;;15.95;100.00
60015;BME280;45867;52.480;6.056;2022-10-17T09:31:04;101924.91;;;15.90;100.00
60015;BME280;45867;52.480;6.056;2022-10-17T09:37:00;101926.53;;;15.86;100.00
60015;BME280;45867;52.480;6.056;2022-10-17T09:39:27;101911.06;;;15.83;100.00
60015;BME280;45867;52.480;6.056;2022-10-17T09:41:59;101910.50;;;15.86;100.00
60015;BME280;45867;52.480;6.056;2022-10-17T09:44:33;101892.31;;;15.88;100.00
60015;BME280;45867;52.480;6.056;2022-10-17T09:49:53;101891.56;;;15.83;100.00
60015;BME280;45867;52.480;6.056;2022-10-17T09:52:30;101901.69;;;15.86;100.00
60015;BME280;45867;52.480;6.056;2022-10-17T09:55:01;101907.84;;;15.86;100.00
60015;BME280;45867;52.480;6.056;2022-10-17T09:57:51;101918.53;;;15.86;100.00
60015;BME280;45867;52.480;6.056;2022-10-17T10:00:24;101917.75;;;15.81;100.00
60015;BME280;45867;52.480;6.056;2022-10-17T10:02:49;101937.25;;;15.81;100.00
60015;BME280;45867;52.480;6.056;2022-10-17T10:05:17;101947.41;;;15.79;100.00
60015;BME280;45867;52.480;6.056;2022-10-17T10:08:00;101969.09;;;15.78;100.00
60015;BME280;45867;52.480;6.056;2022-10-17T10:10:28;101962.66;;;15.73;100.00
60015;BME280;45867;52.480;6.056;2022-10-17T10:13:16;101959.19;;;15.78;100.00
60015;BME280;45867;52.480;6.056;2022-10-17T10:15:44;101960.78;;;15.74;100.00
60015;BME280;45867;52.480;6.056;2022-10-17T10:18:27;101956.28;;;15.74;100.00
60015;BME280;45867;52.480;6.056;2022-10-17T10:27:17;101902.00;;;15.74;100.00
60015;BME280;45867;52.480;6.056;2022-10-17T10:29:50;101894.25;;;15.78;100.00
60015;BME280;45867;52.480;6.056;2022-10-17T10:32:27;101913.19;;;15.81;100.00
60015;BME280;45867;52.480;6.056;2022-10-17T10:35:05;101937.78;;;15.83;100.00
60015;BME280;45867;52.480;6.056;2022-10-17T10:37:39;101936.69;;;15.84;100.00
60015;BME280;45867;52.480;6.056;2022-10-17T10:40:19;101959.94;;;15.89;100.00
60015;BME280;45867;52.480;6.056;2022-10-17T10:42:49;101962.09;;;15.87;100.00
60015;BME280;45867;52.480;6.056;2022-10-17T10:45:24;101978.44;;;15.80;100.00
60015;BME280;45867;52.480;6.056;2022-10-17T10:47:52;101998.72;;;15.81;100.00
60015;BME280;45867;52.480;6.056;2022-10-17T10:56:14;101993.91;;;15.88;100.00
60015;BME280;45867;52.480;6.056;2022-10-17T10:59:29;102003.50;;;15.94;100.00
60015;BME280;45867;52.480;6.056;2022-10-17T11:01:52;102016.31;;;15.92;100.00
60015;BME280;45867;52.480;6.056;2022-10-17T11:07:37;102012.59;;;15.93;100.00
60015;BME280;45867;52.480;6.056;2022-10-17T11:13:10;102021.66;;;16.03;100.00
60015;BME280;45867;52.480;6.056;2022-10-17T11:15:58;102026.44;;;16.06;100.00
60015;BME280;45867;52.480;6.056;2022-10-17T11:18:47;102037.66;;;16.08;100.00
60015;BME280;45867;52.480;6.056;2022-10-17T11:21:20;102047.28;;;16.09;100.00
60015;BME280;45867;52.480;6.056;2022-10-17T11:24:13;102056.63;;;16.16;100.00
60015;BME280;45867;52.480;6.056;2022-10-17T11:26:49;102057.06;;;16.34;100.00
60015;BME280;45867;52.480;6.056;2022-10-17T11:29:16;102045.78;;;16.47;100.00
60015;BME280;45867;52.480;6.056;2022-10-17T11:31:46;102042.88;;;16.38;100.00
60015;BME280;45867;52.480;6.056;2022-10-17T11:34:19;102056.22;;;16.49;100.00
60015;BME280;45867;52.480;6.056;2022-10-17T11:36:47;102062.03;;;16.56;100.00
60015;BME280;45867;52.480;6.056;2022-10-17T11:39:18;102044.72;;;16.48;100.00
60015;BME280;45867;52.480;6.056;2022-10-17T11:49:49;102060.22;;;16.96;100.00
60015;BME280;45867;52.480;6.056;2022-10-17T11:52:43;102059.47;;;16.90;100.00
60015;BME280;45867;52.480;6.056;2022-10-17T11:55:23;102053.88;;;16.86;100.00
60015;BME280;45867;52.480;6.056;2022-10-17T12:11:29;102070.50;;;16.83;100.00
60015;BME280;45867;52.480;6.056;2022-10-17T12:14:35;102079.63;;;16.77;100.00
60015;BME280;45867;52.480;6.056;2022-10-17T12:17:02;102080.69;;;16.76;100.00
60015;BME280;45867;52.480;6.056;2022-10-17T12:19:30;102081.25;;;16.68;100.00
60015;BME280;45867;52.480;6.056;2022-10-17T12:22:05;102074.34;;;16.62;100.00
60015;BME280;45867;52.480;6.056;2022-10-17T12:24:40;102083.22;;;16.52;100.00
60015;BME280;45867;52.480;6.056;2022-10-17T12:33:14;102073.00;;;16.64;100.00
60015;BME280;45867;52.480;6.056;2022-10-17T12:35:46;102088.22;;;16.64;100.00
60015;BME280;45867;52.480;6.056;2022-10-17T12:53:48;102097.66;;;16.56;100.00
60015;BME280;45867;52.480;6.056;2022-10-17T12:56:18;102092.91;;;16.43;100.00
60015;BME280;45867;52.480;6.056;2022-10-17T12:58:46;102098.72;;;16.50;100.00
60015;BME280;45867;52.480;6.056;2022-10-17T13:01:27;102098.72;;;16.50;100.00
60015;BME280;45867;52.480;6.056;2022-10-17T13:03:53;102094.78;;;16.42;100.00
60015;BME280;45867;52.480;6.056;2022-10-17T13:06:27;102099.84;;;16.44;100.00
60015;BME280;45867;52.480;6.056;2022-10-17T13:08:57;102105.44;;;16.48;100.00
60015;BME280;45867;52.480;6.056;2022-10-17T13:11:26;102099.03;;;16.43;100.00
60015;BME280;45867;52.480;6.056;2022-10-17T13:14:16;102094.00;;;16.37;100.00
60015;BME280;45867;52.480;6.056;2022-10-17T13:16:58;102111.41;;;16.34;100.00
60015;BME280;45867;52.480;6.056;2022-10-17T13:19:28;102128.53;;;16.23;100.00
60015;BME280;45867;52.480;6.056;2022-10-17T13:21:59;102132.38;;;15.86;100.00
60015;BME280;45867;52.480;6.056;2022-10-17T13:26:54;102124.34;;;15.20;100.00
60015;BME280;45867;52.480;6.056;2022-10-17T13:29:19;102125.66;;;15.12;100.00
60015;BME280;45867;52.480;6.056;2022-10-17T13:31:54;102139.78;;;15.02;100.00
60015;BME280;45867;52.480;6.056;2022-10-17T13:34:22;102136.28;;;14.97;100.00
60015;BME280;45867;52.480;6.056;2022-10-17T13:39:56;102141.34;;;14.93;100.00
60015;BME280;45867;52.480;6.056;2022-10-17T13:42:29;102150.41;;;14.87;100.00
60015;BME280;45867;52.480;6.056;2022-10-17T13:44:56;102159.19;;;14.77;100.00
60015;BME280;45867;52.480;6.056;2022-10-17T13:47:28;102181.31;;;14.78;100.00
60015;BME280;45867;52.480;6.056;2022-10-17T13:49:55;102167.44;;;14.76;100.00
60015;BME280;45867;52.480;6.056;2022-10-17T13:52:27;102174.63;;;14.70;100.00
60015;BME280;45867;52.480;6.056;2022-10-17T13:55:18;102177.31;;;14.75;100.00
60015;BME280;45867;52.480;6.056;2022-10-17T13:57:49;102175.94;;;14.68;100.00
60015;BME280;45867;52.480;6.056;2022-10-17T14:00:19;102187.44;;;14.68;100.00
60015;BME280;45867;52.480;6.056;2022-10-17T14:02:48;102188.78;;;14.76;100.00
60015;BME280;45867;52.480;6.056;2022-10-17T14:05:22;102171.97;;;14.65;100.00
60015;BME280;45867;52.480;6.056;2022-10-17T14:08:03;102186.41;;;14.79;100.00
60015;BME280;45867;52.480;6.056;2022-10-17T14:10:34;102196.31;;;14.89;100.00
60015;BME280;45867;52.480;6.056;2022-10-17T14:13:02;102180.56;;;14.87;100.00
60015;BME280;45867;52.480;6.056;2022-10-17T14:15:30;102188.59;;;14.93;100.00
60015;BME280;45867;52.480;6.056;2022-10-17T14:18:07;102186.72;;;14.93;100.00
60015;BME280;45867;52.480;6.056;2022-10-17T14:20:34;102198.47;;;14.97;100.00
60015;BME280;45867;52.480;6.056;2022-10-17T14:23:00;102202.50;;;15.00;100.00
60015;BME280;45867;52.480;6.056;2022-10-17T14:25:31;102197.69;;;15.02;100.00
60015;BME280;45867;52.480;6.056;2022-10-17T14:30:46;102197.72;;;15.07;100.00
60015;BME280;45867;52.480;6.056;2022-10-17T14:33:27;102205.19;;;15.10;100.00
60015;BME280;45867;52.480;6.056;2022-10-17T14:35:55;102199.91;;;15.20;100.00
60015;BME280;45867;52.480;6.056;2022-10-17T14:38:22;102204.97;;;15.32;100.00
60015;BME280;45867;52.480;6.056;2022-10-17T14:40:50;102201.25;;;15.38;100.00
60015;BME280;45867;52.480;6.056;2022-10-17T14:43:20;102209.56;;;15.47;100.00
60015;BME280;45867;52.480;6.056;2022-10-17T14:45:46;102196.50;;;15.56;100.00
60015;BME280;45867;52.480;6.056;2022-10-17T14:48:16;102197.84;;;15.63;100.00
60015;BME280;45867;52.480;6.056;2022-10-17T14:53:33;102210.16;;;15.69;100.00